Time;durP1;ratioP1;P1;durP2;ratioP2;P2;SDS_P1;SDS_P2;PMS_P1;PMS_P2;Temp;Humidity;BMP_temperature;BMP_pressure;BME280_temperature;BME280_humidity;BME280_pressure;Samples;Min_cycle;Max_cycle;Signal;HPM_P1;HPM_P2
2022/03/25 00:01:22;;;;;;;40.70;18.70;;;;;;;;;;4994515;28;20437;-70
2022/03/25 00:03:49;;;;;;;40.67;17.93;;;;;;;;;;5011922;28;20471;-70
2022/03/25 00:06:17;;;;;;;38.30;17.97;;;;;;;;;;4994768;28;20446;-70
2022/03/25 00:08:44;;;;;;;38.80;19.07;;;;;;;;;;5004264;28;20463;-71
2022/03/25 00:11:11;;;;;;;46.57;19.17;;;;;;;;;;5011907;28;20439;-70
2022/03/25 00:13:38;;;;;;;36.57;17.93;;;;;;;;;;5011759;28;20771;-70
2022/03/25 00:16:05;;;;;;;45.00;18.47;;;;;;;;;;5011067;28;20502;-70
2022/03/25 00:18:32;;;;;;;38.27;18.67;;;;;;;;;;5010392;28;21024;-71
2022/03/25 00:20:59;;;;;;;41.70;19.93;;;;;;;;;;5012593;28;20438;-70
2022/03/25 00:23:26;;;;;;;38.13;19.30;;;;;;;;;;5011352;28;20470;-71
2022/03/25 00:25:53;;;;;;;40.80;19.40;;;;;;;;;;4993965;28;20443;-71
2022/03/25 00:28:20;;;;;;;39.90;18.80;;;;;;;;;;4994187;28;20553;-70
2022/03/25 00:30:47;;;;;;;45.40;19.43;;;;;;;;;;5011371;28;20496;-70
2022/03/25 00:33:14;;;;;;;42.37;20.77;;;;;;;;;;5011883;28;20443;-70
2022/03/25 00:35:41;;;;;;;40.50;19.43;;;;;;;;;;5010578;28;20562;-70
2022/03/25 00:38:08;;;;;;;39.67;20.33;;;;;;;;;;4994010;28;20447;-71
2022/03/25 00:40:35;;;;;;;40.57;19.87;;;;;;;;;;5011455;28;20466;-70
2022/03/25 00:43:20;;;;;;;41.00;20.00;;;;;;;;;;5011082;28;20456;-70
2022/03/25 00:45:47;;;;;;;41.03;20.40;;;;;;;;;;4993527;28;20439;-70
2022/03/25 00:48:14;;;;;;;39.30;19.73;;;;;;;;;;4993651;28;20497;-71
2022/03/25 00:50:41;;;;;;;41.27;19.27;;;;;;;;;;4992201;28;20482;-71
2022/03/25 00:53:10;;;;;;;45.53;21.23;;;;;;;;;;5011457;28;21012;-71
2022/03/25 00:55:38;;;;;;;41.20;20.40;;;;;;;;;;5011245;28;20505;-70
2022/03/25 00:58:06;;;;;;;41.13;20.73;;;;;;;;;;5010376;28;20450;-71
2022/03/25 01:00:34;;;;;;;41.33;21.10;;;;;;;;;;4993042;28;20953;-71
2022/03/25 01:03:00;;;;;;;42.13;21.03;;;;;;;;;;4994069;28;20435;-71
2022/03/25 01:37:31;;;;;;;40.13;19.13;;;;;;;;;;4743561;28;20483;-71
2022/03/25 01:39:58;;;;;;;42.30;20.07;;;;;;;;;;5010284;28;20519;-71
2022/03/25 01:42:28;;;;;;;43.00;19.90;;;;;;;;;;5009390;28;20427;-71
2022/03/25 01:44:55;;;;;;;39.67;19.67;;;;;;;;;;4992043;28;20557;-71
2022/03/25 01:47:22;;;;;;;45.40;20.47;;;;;;;;;;4992255;28;20518;-71
2022/03/25 01:49:49;;;;;;;40.97;19.57;;;;;;;;;;5008529;28;20447;-71
2022/03/25 01:52:16;;;;;;;44.40;20.33;;;;;;;;;;4993082;28;20450;-71
2022/03/25 01:54:43;;;;;;;39.50;19.90;;;;;;;;;;4991970;28;20455;-71
2022/03/25 01:57:09;;;;;;;41.27;19.90;;;;;;;;;;4992839;28;20474;-70
2022/03/25 01:59:37;;;;;;;37.87;19.47;;;;;;;;;;4992703;28;20447;-71
2022/03/25 02:02:04;;;;;;;35.97;18.57;;;;;;;;;;5006850;28;20493;-71
2022/03/25 02:04:31;;;;;;;42.03;19.30;;;;;;;;;;4988560;28;21190;-71
2022/03/25 02:06:58;;;;;;;38.53;19.17;;;;;;;;;;4987292;28;20449;-71
2022/03/25 02:09:26;;;;;;;38.70;18.73;;;;;;;;;;4981526;28;20451;-71
2022/03/25 02:11:55;;;;;;;35.63;17.67;;;;;;;;;;4992718;28;20439;-71
2022/03/25 02:14:23;;;;;;;37.40;18.87;;;;;;;;;;4991848;28;20493;-71
2022/03/25 02:17:07;;;;;;;38.63;18.50;;;;;;;;;;5008991;28;20435;-70
2022/03/25 02:19:34;;;;;;;42.67;19.93;;;;;;;;;;4992202;28;20538;-70
2022/03/25 02:22:18;;;;;;;39.63;19.43;;;;;;;;;;4991350;28;20438;-71
2022/03/25 02:24:45;;;;;;;44.23;20.30;;;;;;;;;;5008696;28;20478;-71
2022/03/25 02:27:12;;;;;;;41.60;20.30;;;;;;;;;;4992194;28;20446;-71
2022/03/25 02:29:39;;;;;;;50.23;21.27;;;;;;;;;;5009813;28;21048;-71
2022/03/25 02:32:07;;;;;;;51.27;22.57;;;;;;;;;;4991423;28;20543;-70
2022/03/25 02:34:38;;;;;;;46.17;21.37;;;;;;;;;;5009424;28;20517;-71
2022/03/25 02:37:06;;;;;;;44.80;22.37;;;;;;;;;;5009644;28;20423;-70
2022/03/25 02:39:33;;;;;;;49.10;22.37;;;;;;;;;;4991453;28;20494;-70
2022/03/25 02:42:00;;;;;;;54.17;23.47;;;;;;;;;;4991662;28;20504;-70
2022/03/25 02:44:27;;;;;;;56.67;24.70;;;;;;;;;;5007557;28;20517;-70
2022/03/25 02:46:54;;;;;;;54.53;24.53;;;;;;;;;;4991309;28;20447;-70
2022/03/25 02:49:21;;;;;;;53.37;24.43;;;;;;;;;;4991318;28;20447;-70
2022/03/25 02:51:48;;;;;;;58.67;25.90;;;;;;;;;;5008872;28;20439;-70
2022/03/25 02:54:15;;;;;;;58.17;25.47;;;;;;;;;;5008849;28;20522;-70
2022/03/25 02:56:59;;;;;;;54.90;24.57;;;;;;;;;;5009772;28;20539;-70
2022/03/25 02:59:27;;;;;;;58.03;25.20;;;;;;;;;;5008721;28;20438;-71
2022/03/25 03:02:12;;;;;;;56.33;25.03;;;;;;;;;;5007993;28;20785;-70
2022/03/25 03:04:39;;;;;;;52.73;24.20;;;;;;;;;;5008148;28;20533;-70
2022/03/25 03:07:23;;;;;;;50.00;24.17;;;;;;;;;;5008583;28;20429;-70
2022/03/25 03:09:50;;;;;;;59.43;26.80;;;;;;;;;;5008594;28;20443;-70
2022/03/25 03:12:17;;;;;;;52.67;24.43;;;;;;;;;;5008705;28;20814;-70
2022/03/25 03:14:44;;;;;;;53.00;24.73;;;;;;;;;;4974154;28;20957;-70
2022/03/25 03:17:13;;;;;;;57.07;26.37;;;;;;;;;;4972127;28;20448;-70
2022/03/25 03:19:39;;;;;;;51.83;24.97;;;;;;;;;;5000381;28;20435;-70
2022/03/25 03:22:06;;;;;;;55.10;24.63;;;;;;;;;;5008626;28;20497;-70
2022/03/25 03:24:33;;;;;;;53.57;25.67;;;;;;;;;;4975185;28;20467;-71
2022/03/25 03:26:59;;;;;;;59.17;27.30;;;;;;;;;;5008839;28;20471;-70
2022/03/25 03:29:26;;;;;;;58.03;26.50;;;;;;;;;;5007998;28;20546;-70
2022/03/25 03:31:53;;;;;;;58.60;26.37;;;;;;;;;;5008086;28;20926;-71
2022/03/25 03:34:20;;;;;;;55.07;27.03;;;;;;;;;;5008382;28;21351;-71
2022/03/25 03:36:47;;;;;;;61.07;33.90;;;;;;;;;;4990128;28;20474;-70
2022/03/25 03:39:14;;;;;;;60.53;28.67;;;;;;;;;;5007497;28;20226;-70
2022/03/25 03:41:40;;;;;;;56.57;26.63;;;;;;;;;;5008690;28;20442;-70
2022/03/25 03:44:07;;;;;;;55.83;25.67;;;;;;;;;;5008185;28;20463;-70
2022/03/25 03:46:34;;;;;;;54.87;25.10;;;;;;;;;;4990657;28;20941;-70
2022/03/25 03:49:01;;;;;;;55.80;26.27;;;;;;;;;;5008260;28;20443;-69
2022/03/25 03:51:27;;;;;;;56.77;27.70;;;;;;;;;;5008646;28;20430;-70
2022/03/25 03:53:54;;;;;;;53.73;25.90;;;;;;;;;;5008412;28;20794;-69
2022/03/25 03:56:39;;;;;;;56.30;25.53;;;;;;;;;;5000719;28;20438;-69
2022/03/25 03:59:05;;;;;;;51.83;25.30;;;;;;;;;;4990804;28;20791;-69
2022/03/25 04:01:49;;;;;;;59.00;26.10;;;;;;;;;;5007013;28;20433;-69
2022/03/25 04:04:17;;;;;;;57.20;26.07;;;;;;;;;;5007880;28;20501;-70
2022/03/25 04:06:44;;;;;;;56.77;26.83;;;;;;;;;;5007843;28;20435;-70
2022/03/25 04:09:11;;;;;;;56.17;27.10;;;;;;;;;;4987950;28;21016;-69
2022/03/25 04:11:38;;;;;;;57.83;26.20;;;;;;;;;;5008930;28;20437;-70
2022/03/25 04:14:05;;;;;;;55.80;25.97;;;;;;;;;;5002305;28;20443;-70
2022/03/25 04:16:36;;;;;;;55.70;26.87;;;;;;;;;;5008016;28;20442;-69
2022/03/25 04:19:03;;;;;;;59.67;27.37;;;;;;;;;;5007470;28;20445;-70
2022/03/25 04:21:30;;;;;;;55.53;26.73;;;;;;;;;;5008206;28;20431;-70
2022/03/25 04:23:56;;;;;;;57.33;26.60;;;;;;;;;;5006874;28;20474;-70
2022/03/25 04:26:24;;;;;;;64.13;27.87;;;;;;;;;;5011119;28;20472;-70
2022/03/25 04:28:51;;;;;;;60.00;27.27;;;;;;;;;;5011951;28;20438;-70
2022/03/25 04:31:17;;;;;;;55.70;26.73;;;;;;;;;;4993464;28;20802;-70
2022/03/25 04:33:44;;;;;;;61.10;27.73;;;;;;;;;;4990980;28;20521;-70
2022/03/25 04:36:13;;;;;;;58.70;28.00;;;;;;;;;;4999097;28;20450;-71
2022/03/25 04:38:41;;;;;;;59.53;26.87;;;;;;;;;;5011304;28;20462;-71
2022/03/25 04:41:12;;;;;;;64.10;26.53;;;;;;;;;;5011492;28;20447;-71
2022/03/25 04:43:39;;;;;;;64.43;28.70;;;;;;;;;;4998158;28;20450;-68
2022/03/25 04:46:08;;;;;;;58.73;28.50;;;;;;;;;;5003137;28;20466;-69
2022/03/25 04:48:35;;;;;;;62.77;28.50;;;;;;;;;;4984499;28;20474;-71
2022/03/25 04:51:21;;;;;;;61.07;26.77;;;;;;;;;;4988666;28;20434;-70
2022/03/25 04:53:49;;;;;;;60.37;27.07;;;;;;;;;;5003669;28;20473;-70
2022/03/25 04:56:35;;;;;;;53.47;26.03;;;;;;;;;;5004389;28;20431;-70
2022/03/25 04:59:02;;;;;;;60.23;27.27;;;;;;;;;;4985411;28;20485;-72
2022/03/25 05:01:29;;;;;;;60.50;27.60;;;;;;;;;;4999922;28;21128;-71
2022/03/25 05:03:56;;;;;;;57.70;27.10;;;;;;;;;;4970762;28;20457;-71
2022/03/25 05:06:23;;;;;;;69.27;29.47;;;;;;;;;;5003282;28;20578;-71
2022/03/25 05:08:51;;;;;;;68.47;31.20;;;;;;;;;;5004684;28;20445;-71
2022/03/25 05:11:18;;;;;;;78.17;33.57;;;;;;;;;;5004538;28;20467;-68
2022/03/25 05:13:45;;;;;;;82.93;34.87;;;;;;;;;;4985625;28;20498;-69
2022/03/25 05:16:29;;;;;;;76.53;33.97;;;;;;;;;;5003326;28;20428;-71
2022/03/25 05:18:56;;;;;;;68.83;31.80;;;;;;;;;;5003553;28;20449;-70
2022/03/25 05:21:23;;;;;;;80.90;38.27;;;;;;;;;;5004162;28;20528;-69
2022/03/25 05:23:50;;;;;;;64.77;30.87;;;;;;;;;;5000817;28;20504;-68
2022/03/25 05:26:17;;;;;;;57.83;27.83;;;;;;;;;;4985812;28;20472;-70
2022/03/25 05:28:48;;;;;;;61.73;29.27;;;;;;;;;;5001749;28;20967;-69
2022/03/25 05:31:15;;;;;;;56.60;26.30;;;;;;;;;;5000043;28;20447;-70
2022/03/25 05:33:42;;;;;;;57.00;27.37;;;;;;;;;;5001734;28;20481;-69
2022/03/25 05:36:09;;;;;;;52.17;25.87;;;;;;;;;;4984613;28;20452;-68
2022/03/25 05:38:36;;;;;;;56.83;26.40;;;;;;;;;;4985409;28;20478;-68
2022/03/25 05:41:03;;;;;;;60.70;28.03;;;;;;;;;;4983638;28;20448;-70
2022/03/25 05:43:30;;;;;;;55.03;27.20;;;;;;;;;;5008693;28;20453;-71
2022/03/25 05:45:57;;;;;;;58.90;27.37;;;;;;;;;;5018591;28;20470;-69
2022/03/25 05:48:24;;;;;;;55.77;26.90;;;;;;;;;;5025342;28;20435;-69
2022/03/25 05:50:51;;;;;;;53.73;26.00;;;;;;;;;;4993163;28;20497;-69
2022/03/25 05:53:18;;;;;;;56.70;27.10;;;;;;;;;;4991463;28;20505;-69
2022/03/25 05:55:45;;;;;;;55.50;28.30;;;;;;;;;;5008943;28;20523;-69
2022/03/25 05:58:12;;;;;;;60.03;29.57;;;;;;;;;;4995577;28;20475;-68
2022/03/25 06:00:38;;;;;;;54.73;26.20;;;;;;;;;;5000901;28;20453;-70
2022/03/25 06:03:05;;;;;;;67.70;29.03;;;;;;;;;;5002194;28;21226;-70
2022/03/25 06:05:35;;;;;;;53.90;25.83;;;;;;;;;;5000003;28;20470;-70
2022/03/25 06:08:02;;;;;;;60.83;28.07;;;;;;;;;;4998596;28;20981;-70
2022/03/25 06:10:29;;;;;;;56.47;27.33;;;;;;;;;;4985574;28;20447;-71
2022/03/25 06:12:55;;;;;;;60.10;27.33;;;;;;;;;;5001867;28;20462;-69
2022/03/25 06:15:22;;;;;;;56.27;27.73;;;;;;;;;;5001670;28;20478;-67
2022/03/25 06:17:50;;;;;;;57.97;28.50;;;;;;;;;;5002260;28;20438;-69
2022/03/25 06:20:19;;;;;;;62.20;28.77;;;;;;;;;;5002501;28;20513;-70
2022/03/25 06:22:46;;;;;;;64.77;28.77;;;;;;;;;;5002751;28;20535;-71
2022/03/25 06:25:13;;;;;;;57.07;27.90;;;;;;;;;;5002777;28;20467;-70
2022/03/25 06:27:50;;;;;;;63.03;28.53;;;;;;;;;;5000688;28;20578;-68
2022/03/25 06:30:18;;;;;;;66.20;28.27;;;;;;;;;;4994204;28;21046;-72
2022/03/25 06:32:44;;;;;;;56.97;27.20;;;;;;;;;;4983129;28;20283;-73
2022/03/25 06:35:11;;;;;;;55.30;26.70;;;;;;;;;;4997878;28;20681;-68
2022/03/25 06:37:38;;;;;;;65.17;29.57;;;;;;;;;;5000883;28;20482;-73
2022/03/25 06:40:07;;;;;;;58.30;25.60;;;;;;;;;;4999462;28;20439;-74
2022/03/25 06:42:34;;;;;;;62.10;29.63;;;;;;;;;;5004090;28;20195;-73
2022/03/25 06:45:03;;;;;;;66.57;30.83;;;;;;;;;;5003548;28;20634;-73
2022/03/25 06:47:30;;;;;;;63.87;30.93;;;;;;;;;;5003115;28;20711;-73
2022/03/25 06:49:57;;;;;;;63.33;30.43;;;;;;;;;;5002577;28;20836;-71
2022/03/25 06:52:24;;;;;;;72.10;32.03;;;;;;;;;;4984254;28;20435;-72
2022/03/25 06:55:11;;;;;;;81.53;36.33;;;;;;;;;;5002040;28;20186;-71
2022/03/25 06:57:44;;;;;;;91.50;37.20;;;;;;;;;;4984856;28;20200;-71
2022/03/25 07:00:12;;;;;;;84.33;36.17;;;;;;;;;;4968086;28;20192;-74
2022/03/25 07:02:39;;;;;;;65.57;32.57;;;;;;;;;;5002270;28;20227;-73
2022/03/25 07:05:10;;;;;;;65.90;33.37;;;;;;;;;;5001725;28;20227;-70
2022/03/25 07:07:37;;;;;;;64.70;32.67;;;;;;;;;;5001577;28;20192;-72
2022/03/25 07:10:05;;;;;;;63.47;32.47;;;;;;;;;;4985681;28;20184;-70
2022/03/25 07:12:32;;;;;;;67.47;33.63;;;;;;;;;;5002336;28;20190;-73
2022/03/25 07:14:59;;;;;;;68.73;35.07;;;;;;;;;;4985455;28;20204;-75
2022/03/25 07:17:29;;;;;;;63.53;31.77;;;;;;;;;;5000640;28;20676;-74
2022/03/25 07:19:56;;;;;;;65.03;32.50;;;;;;;;;;4985813;28;20181;-74
2022/03/25 07:22:23;;;;;;;58.77;32.80;;;;;;;;;;5002384;28;20191;-73
2022/03/25 07:24:50;;;;;;;65.37;35.43;;;;;;;;;;4986071;28;20193;-77
2022/03/25 07:27:16;;;;;;;65.90;34.73;;;;;;;;;;4985006;28;20218;-74
2022/03/25 07:29:43;;;;;;;68.03;36.43;;;;;;;;;;5001261;28;20223;-73
2022/03/25 07:32:10;;;;;;;66.63;35.03;;;;;;;;;;4983821;28;20277;-73
2022/03/25 07:34:38;;;;;;;64.57;33.50;;;;;;;;;;4985423;28;20207;-80
2022/03/25 07:37:05;;;;;;;69.57;36.23;;;;;;;;;;4992451;28;20612;-75
2022/03/25 07:39:32;;;;;;;61.83;34.57;;;;;;;;;;4985553;28;20241;-74
2022/03/25 07:42:00;;;;;;;65.63;36.30;;;;;;;;;;4983498;28;20215;-75
2022/03/25 07:44:45;;;;;;;66.53;34.63;;;;;;;;;;4988010;28;20172;-72
2022/03/25 07:47:13;;;;;;;60.67;32.00;;;;;;;;;;4971500;28;20239;-73
2022/03/25 07:49:40;;;;;;;68.77;35.50;;;;;;;;;;5002382;28;20196;-73
2022/03/25 07:52:08;;;;;;;67.90;35.40;;;;;;;;;;5001309;28;20200;-74
2022/03/25 07:54:35;;;;;;;59.70;33.00;;;;;;;;;;4984935;28;20584;-75
2022/03/25 07:57:05;;;;;;;62.30;33.30;;;;;;;;;;4984319;28;20230;-71
2022/03/25 07:59:32;;;;;;;63.63;34.57;;;;;;;;;;4969553;28;20198;-65
2022/03/25 08:01:59;;;;;;;63.60;33.07;;;;;;;;;;5004761;28;20188;-70
2022/03/25 08:04:30;;;;;;;57.47;32.13;;;;;;;;;;5004993;28;20185;-70
2022/03/25 08:06:57;;;;;;;62.37;32.70;;;;;;;;;;5005531;28;20248;-68
2022/03/25 08:09:24;;;;;;;63.53;31.63;;;;;;;;;;5005245;28;20203;-70
2022/03/25 08:11:50;;;;;;;55.17;31.20;;;;;;;;;;5004306;28;20281;-69
2022/03/25 08:14:22;;;;;;;56.37;31.73;;;;;;;;;;4988184;28;20701;-70
2022/03/25 08:16:49;;;;;;;59.27;32.07;;;;;;;;;;5003362;28;20196;-70
2022/03/25 08:19:16;;;;;;;52.87;31.37;;;;;;;;;;5004486;28;20610;-72
2022/03/25 08:21:43;;;;;;;55.27;30.03;;;;;;;;;;5003620;28;20527;-75
2022/03/25 08:29:45;;;;;;;48.90;28.17;;;;;;;;;;5005579;28;20184;-73
2022/03/25 08:32:13;;;;;;;46.43;25.50;;;;;;;;;;4988450;28;20649;-73
2022/03/25 08:34:40;;;;;;;45.57;26.03;;;;;;;;;;4981563;28;20208;-78
2022/03/25 08:37:07;;;;;;;45.90;25.40;;;;;;;;;;4988887;28;20234;-78
2022/03/25 08:39:34;;;;;;;44.97;24.33;;;;;;;;;;5006386;28;20307;-73
2022/03/25 08:42:02;;;;;;;44.90;24.17;;;;;;;;;;4995275;28;20224;-72
2022/03/25 08:44:29;;;;;;;42.93;24.73;;;;;;;;;;5002063;28;20238;-72
2022/03/25 08:47:15;;;;;;;40.43;22.23;;;;;;;;;;5002801;28;20220;-72
2022/03/25 08:49:42;;;;;;;39.77;20.37;;;;;;;;;;4977142;28;20280;-73
2022/03/25 08:52:09;;;;;;;35.63;17.83;;;;;;;;;;4997198;28;20195;-73
2022/03/25 08:54:36;;;;;;;32.17;16.80;;;;;;;;;;4986287;28;20227;-71
2022/03/25 08:57:03;;;;;;;34.53;17.37;;;;;;;;;;5005791;28;20188;-76
2022/03/25 08:59:34;;;;;;;35.57;18.60;;;;;;;;;;5003373;28;20591;-74
2022/03/25 09:02:02;;;;;;;31.87;17.70;;;;;;;;;;4999780;28;20196;-70
2022/03/25 09:04:30;;;;;;;32.77;17.23;;;;;;;;;;5003664;28;20199;-71
2022/03/25 09:06:57;;;;;;;33.27;18.27;;;;;;;;;;5004816;28;20210;-73
2022/03/25 09:09:24;;;;;;;32.60;19.30;;;;;;;;;;5002980;28;20548;-70
2022/03/25 09:11:51;;;;;;;33.60;18.57;;;;;;;;;;5002828;28;20231;-73
2022/03/25 09:14:19;;;;;;;39.63;19.50;;;;;;;;;;4986312;28;20198;-69
2022/03/25 09:16:46;;;;;;;34.07;18.57;;;;;;;;;;5003966;28;20202;-69
2022/03/25 09:19:13;;;;;;;33.50;19.13;;;;;;;;;;5003389;28;20289;-71
2022/03/25 09:21:39;;;;;;;38.80;17.53;;;;;;;;;;4987156;28;20203;-74
2022/03/25 09:24:06;;;;;;;33.73;18.70;;;;;;;;;;4996126;28;20702;-73
2022/03/25 09:26:34;;;;;;;37.83;20.13;;;;;;;;;;4994160;28;20219;-70
2022/03/25 09:29:03;;;;;;;33.30;18.10;;;;;;;;;;5002038;28;20198;-72
2022/03/25 09:31:30;;;;;;;37.07;19.97;;;;;;;;;;5002081;28;20200;-72
2022/03/25 09:36:55;;;;;;;36.67;19.60;;;;;;;;;;5001568;28;20180;-71
2022/03/25 09:39:22;;;;;;;34.37;18.97;;;;;;;;;;4970619;28;20224;-71
2022/03/25 09:41:49;;;;;;;32.10;19.10;;;;;;;;;;5000080;28;20192;-71
2022/03/25 09:44:34;;;;;;;35.40;20.10;;;;;;;;;;4989196;28;20181;-72
2022/03/25 09:47:01;;;;;;;37.20;19.73;;;;;;;;;;4964894;28;20709;-72
2022/03/25 09:49:28;;;;;;;31.10;17.33;;;;;;;;;;4991392;28;20787;-72
2022/03/25 09:51:56;;;;;;;33.03;18.77;;;;;;;;;;4985618;28;20198;-72
2022/03/25 09:54:26;;;;;;;31.03;17.70;;;;;;;;;;4993747;28;20269;-73
2022/03/25 09:57:10;;;;;;;31.57;18.67;;;;;;;;;;4999515;28;20259;-71
2022/03/25 09:59:37;;;;;;;34.87;18.53;;;;;;;;;;4968600;28;20315;-71
2022/03/25 10:02:04;;;;;;;31.67;18.40;;;;;;;;;;4982612;28;20203;-71
2022/03/25 10:04:35;;;;;;;29.60;18.17;;;;;;;;;;4989955;28;20622;-71
2022/03/25 10:07:06;;;;;;;32.67;18.23;;;;;;;;;;4999207;28;20235;-71
2022/03/25 10:09:33;;;;;;;33.33;16.47;;;;;;;;;;4990925;28;20204;-71
2022/03/25 10:12:00;;;;;;;36.60;17.83;;;;;;;;;;5002684;28;20295;-72
2022/03/25 10:14:29;;;;;;;29.30;17.20;;;;;;;;;;4990788;28;20192;-71
2022/03/25 10:16:55;;;;;;;30.80;16.60;;;;;;;;;;5001376;28;20602;-71
2022/03/25 10:19:28;;;;;;;24.47;14.83;;;;;;;;;;4991055;28;20196;-72
2022/03/25 10:21:58;;;;;;;24.90;14.80;;;;;;;;;;4981167;28;20204;-71
2022/03/25 10:24:41;;;;;;;29.23;14.23;;;;;;;;;;4991731;28;20485;-68
2022/03/25 10:27:13;;;;;;;26.77;14.20;;;;;;;;;;4988153;28;20247;-73
2022/03/25 10:29:41;;;;;;;30.33;14.63;;;;;;;;;;5004064;28;20934;-72
2022/03/25 10:32:12;;;;;;;26.60;15.23;;;;;;;;;;4988241;28;20192;-70
2022/03/25 10:35:06;;;;;;;24.27;14.73;;;;;;;;;;5002862;28;20942;-70
2022/03/25 10:37:35;;;;;;;31.83;14.70;;;;;;;;;;4970388;28;20236;-71
2022/03/25 10:40:03;;;;;;;27.60;15.70;;;;;;;;;;5003330;28;20204;-72
2022/03/25 10:42:30;;;;;;;28.23;16.20;;;;;;;;;;4983693;28;20315;-72
2022/03/25 10:44:58;;;;;;;27.13;15.93;;;;;;;;;;4984350;28;20551;-72
2022/03/25 10:47:26;;;;;;;34.07;16.33;;;;;;;;;;4983965;28;20215;-72
2022/03/25 10:49:53;;;;;;;27.63;16.07;;;;;;;;;;4991055;28;20227;-73
2022/03/25 10:52:24;;;;;;;29.80;16.80;;;;;;;;;;4984093;28;20188;-75
2022/03/25 10:55:17;;;;;;;25.57;16.37;;;;;;;;;;4985384;28;20184;-74
2022/03/25 10:57:53;;;;;;;29.50;16.90;;;;;;;;;;5001077;28;20247;-73
2022/03/25 11:00:22;;;;;;;27.90;16.33;;;;;;;;;;4985158;28;20199;-74
2022/03/25 11:02:49;;;;;;;25.43;15.93;;;;;;;;;;4985960;28;20219;-73
2022/03/25 11:05:17;;;;;;;30.47;16.70;;;;;;;;;;5002226;28;20211;-73
2022/03/25 11:07:44;;;;;;;30.47;17.20;;;;;;;;;;5001953;28;20796;-74
2022/03/25 11:10:14;;;;;;;30.67;17.73;;;;;;;;;;4983903;28;20284;-77
2022/03/25 11:12:44;;;;;;;30.20;17.67;;;;;;;;;;5001706;28;20327;-77
2022/03/25 11:15:11;;;;;;;30.37;17.90;;;;;;;;;;4999891;28;20223;-75
2022/03/25 11:17:39;;;;;;;28.50;16.93;;;;;;;;;;4984395;28;20238;-72
2022/03/25 11:20:06;;;;;;;32.60;18.67;;;;;;;;;;4982690;28;20709;-72
2022/03/25 11:22:59;;;;;;;27.77;16.53;;;;;;;;;;5001401;28;20175;-71
2022/03/25 11:25:27;;;;;;;26.73;14.83;;;;;;;;;;4983604;28;20198;-73
2022/03/25 11:28:16;;;;;;;28.17;15.73;;;;;;;;;;4987085;28;20184;-71
2022/03/25 11:30:43;;;;;;;23.73;13.00;;;;;;;;;;4981984;28;20848;-72
2022/03/25 11:33:10;;;;;;;26.50;15.27;;;;;;;;;;5001252;28;20188;-71
2022/03/25 11:35:41;;;;;;;28.70;16.07;;;;;;;;;;4989177;28;20207;-73
2022/03/25 11:38:14;;;;;;;26.13;15.27;;;;;;;;;;4991005;28;20239;-74
2022/03/25 11:40:59;;;;;;;30.53;14.47;;;;;;;;;;5007902;28;20257;-73
2022/03/25 11:43:28;;;;;;;24.37;15.13;;;;;;;;;;5003459;28;20218;-74
2022/03/25 11:46:06;;;;;;;27.17;15.37;;;;;;;;;;4990973;28;20203;-74
2022/03/25 11:48:34;;;;;;;24.73;13.50;;;;;;;;;;5007632;28;20895;-73
2022/03/25 11:51:01;;;;;;;24.27;14.53;;;;;;;;;;4997902;28;20264;-72
2022/03/25 11:53:29;;;;;;;25.40;14.07;;;;;;;;;;5006573;28;20311;-74
2022/03/25 11:55:56;;;;;;;23.43;14.20;;;;;;;;;;4990682;28;20187;-75
2022/03/25 11:58:25;;;;;;;28.07;14.90;;;;;;;;;;5007205;28;20206;-77
2022/03/25 12:01:12;;;;;;;24.63;14.40;;;;;;;;;;4985226;28;20208;-75
2022/03/25 12:03:42;;;;;;;22.57;14.57;;;;;;;;;;5004285;28;20219;-75
2022/03/25 12:06:10;;;;;;;26.03;14.67;;;;;;;;;;5008339;28;20196;-76
2022/03/25 12:08:39;;;;;;;22.30;13.67;;;;;;;;;;4988764;28;20263;-73
2022/03/25 12:11:07;;;;;;;24.70;12.87;;;;;;;;;;5008883;28;20696;-74
2022/03/25 12:13:53;;;;;;;23.40;13.73;;;;;;;;;;4988882;28;20192;-74
2022/03/25 12:16:39;;;;;;;22.83;12.97;;;;;;;;;;5008024;28;20185;-75
2022/03/25 12:19:10;;;;;;;20.13;12.67;;;;;;;;;;5007570;28;20192;-75
2022/03/25 12:21:38;;;;;;;32.47;12.40;;;;;;;;;;4989407;28;21039;-74
2022/03/25 12:24:05;;;;;;;21.67;12.87;;;;;;;;;;4989234;28;20273;-64
2022/03/25 12:26:33;;;;;;;21.23;13.30;;;;;;;;;;5007351;28;20223;-70
2022/03/25 12:28:59;;;;;;;21.27;13.67;;;;;;;;;;4989867;28;21011;-71
2022/03/25 12:31:26;;;;;;;20.23;12.60;;;;;;;;;;5013880;28;20204;-71
2022/03/25 12:33:57;;;;;;;23.30;13.03;;;;;;;;;;5015319;28;20219;-71
2022/03/25 12:36:24;;;;;;;18.97;12.37;;;;;;;;;;4996042;28;20192;-71
2022/03/25 12:38:57;;;;;;;28.20;13.33;;;;;;;;;;5015213;28;20290;-71
2022/03/25 12:41:26;;;;;;;23.17;13.17;;;;;;;;;;5013531;28;20215;-71
2022/03/25 12:44:13;;;;;;;19.97;11.90;;;;;;;;;;5014328;28;20281;-71
2022/03/25 12:46:59;;;;;;;22.20;12.13;;;;;;;;;;5011489;28;20216;-73
2022/03/25 12:49:26;;;;;;;20.57;12.13;;;;;;;;;;5010949;28;20279;-72
2022/03/25 12:51:56;;;;;;;23.90;12.33;;;;;;;;;;5012178;28;20199;-72
2022/03/25 12:54:22;;;;;;;21.50;12.20;;;;;;;;;;4994123;28;20203;-72
2022/03/25 12:56:54;;;;;;;22.90;11.67;;;;;;;;;;4994827;28;20200;-72
2022/03/25 12:59:41;;;;;;;22.40;11.97;;;;;;;;;;4997412;28;20200;-72
2022/03/25 13:02:09;;;;;;;19.27;11.33;;;;;;;;;;4974817;28;20284;-72
2022/03/25 13:04:37;;;;;;;23.47;11.20;;;;;;;;;;4992373;28;20216;-72
2022/03/25 13:07:08;;;;;;;16.50;10.60;;;;;;;;;;4992194;28;20602;-72
2022/03/25 13:09:34;;;;;;;20.07;10.50;;;;;;;;;;4991984;28;20193;-72
2022/03/25 13:12:32;;;;;;;21.20;11.50;;;;;;;;;;4991365;28;20177;-73
2022/03/25 13:14:59;;;;;;;20.30;10.97;;;;;;;;;;4992581;28;20204;-73
2022/03/25 13:17:44;;;;;;;16.60;10.00;;;;;;;;;;5008368;28;20183;-72
2022/03/25 13:20:17;;;;;;;19.07;10.97;;;;;;;;;;5011550;28;20211;-72
2022/03/25 13:22:54;;;;;;;18.30;12.20;;;;;;;;;;5010278;28;20204;-72
2022/03/25 13:25:25;;;;;;;18.50;10.70;;;;;;;;;;5011201;28;20192;-73
2022/03/25 13:27:52;;;;;;;19.83;10.70;;;;;;;;;;4994278;28;20231;-73
2022/03/25 13:30:19;;;;;;;20.20;10.03;;;;;;;;;;4993804;28;20192;-73
2022/03/25 13:32:46;;;;;;;21.60;10.93;;;;;;;;;;4993203;28;23034;-73
2022/03/25 13:35:31;;;;;;;22.87;12.07;;;;;;;;;;5011381;28;20177;-73
2022/03/25 13:38:01;;;;;;;23.53;12.47;;;;;;;;;;5011041;28;20242;-73
2022/03/25 13:40:33;;;;;;;21.07;11.30;;;;;;;;;;4993583;28;20204;-74
2022/03/25 13:43:00;;;;;;;23.37;12.27;;;;;;;;;;5009917;28;20192;-73
2022/03/25 13:45:26;;;;;;;21.43;12.33;;;;;;;;;;5009484;28;20328;-72
2022/03/25 13:48:12;;;;;;;22.23;13.53;;;;;;;;;;4996460;28;20219;-71
2022/03/25 13:50:50;;;;;;;25.07;13.70;;;;;;;;;;4990754;28;20207;-73
2022/03/25 13:53:37;;;;;;;20.83;13.07;;;;;;;;;;4990443;28;20173;-72
2022/03/25 13:56:08;;;;;;;21.33;13.57;;;;;;;;;;4990262;28;20185;-73
2022/03/25 13:58:54;;;;;;;28.60;15.40;;;;;;;;;;4990816;28;20169;-72
2022/03/25 14:01:31;;;;;;;28.23;16.30;;;;;;;;;;4989880;28;20227;-73
2022/03/25 14:04:02;;;;;;;26.73;16.13;;;;;;;;;;4991431;28;20188;-72
2022/03/25 14:06:33;;;;;;;27.57;15.20;;;;;;;;;;5003352;28;20196;-73
2022/03/25 14:09:23;;;;;;;20.43;12.20;;;;;;;;;;4991544;28;20674;-73
2022/03/25 14:11:50;;;;;;;17.60;8.70;;;;;;;;;;4991174;28;20271;-73
2022/03/25 14:14:27;;;;;;;18.37;9.47;;;;;;;;;;4990854;28;20191;-73
2022/03/25 14:16:54;;;;;;;17.40;8.70;;;;;;;;;;4989607;28;20687;-73
2022/03/25 14:19:21;;;;;;;13.87;8.23;;;;;;;;;;4973253;28;20202;-73
2022/03/25 14:21:48;;;;;;;16.00;9.53;;;;;;;;;;4991168;28;20193;-73
2022/03/25 14:24:34;;;;;;;18.63;9.30;;;;;;;;;;4989893;28;21006;-73
2022/03/25 14:27:02;;;;;;;16.10;9.60;;;;;;;;;;4989315;28;20219;-73
2022/03/25 14:29:29;;;;;;;17.90;9.57;;;;;;;;;;4990675;28;20207;-73
2022/03/25 14:31:56;;;;;;;17.30;10.17;;;;;;;;;;4990743;28;20674;-72
2022/03/25 14:34:40;;;;;;;18.73;9.10;;;;;;;;;;4990454;28;20691;-72
2022/03/25 14:37:07;;;;;;;17.80;9.93;;;;;;;;;;4990416;28;20181;-73
2022/03/25 14:39:35;;;;;;;27.53;12.27;;;;;;;;;;4988438;28;20275;-72
2022/03/25 14:42:02;;;;;;;21.83;12.77;;;;;;;;;;4989202;28;20192;-73
2022/03/25 14:44:29;;;;;;;21.27;11.83;;;;;;;;;;4989455;28;20685;-72
2022/03/25 14:46:56;;;;;;;22.70;10.97;;;;;;;;;;4990139;28;20196;-71
2022/03/25 14:49:23;;;;;;;19.77;11.17;;;;;;;;;;4988837;28;20544;-72
2022/03/25 14:51:49;;;;;;;20.60;11.40;;;;;;;;;;4989275;28;20227;-72
2022/03/25 14:54:17;;;;;;;22.17;11.57;;;;;;;;;;4990877;28;20184;-73
2022/03/25 14:56:43;;;;;;;23.63;12.63;;;;;;;;;;4990158;28;20667;-73
2022/03/25 14:59:10;;;;;;;26.07;13.80;;;;;;;;;;4989081;28;20200;-73
2022/03/25 15:01:37;;;;;;;26.27;13.47;;;;;;;;;;4989883;28;20209;-73
2022/03/25 15:04:05;;;;;;;23.63;13.50;;;;;;;;;;4989814;28;20188;-73
2022/03/25 15:06:32;;;;;;;23.53;13.60;;;;;;;;;;4989030;28;20189;-72
2022/03/25 15:08:59;;;;;;;24.50;12.27;;;;;;;;;;5003002;28;20997;-73
2022/03/25 15:11:26;;;;;;;19.77;12.33;;;;;;;;;;4991204;28;20272;-73
2022/03/25 15:13:53;;;;;;;32.00;15.63;;;;;;;;;;5009069;28;20188;-75